sensor_id;sensor_type;location;lat;lon;timestamp;temperature;humidity
20319;DHT22;10317;47.254;11.314;2023-07-20T00:01:11;17.60;99.90
20319;DHT22;10317;47.254;11.314;2023-07-20T00:03:37;17.60;99.90
20319;DHT22;10317;47.254;11.314;2023-07-20T00:06:03;17.50;99.90
20319;DHT22;10317;47.254;11.314;2023-07-20T00:08:30;17.50;99.90
20319;DHT22;10317;47.254;11.314;2023-07-20T00:10:56;17.50;99.90
20319;DHT22;10317;47.254;11.314;2023-07-20T00:13:22;17.50;99.90
20319;DHT22;10317;47.254;11.314;2023-07-20T00:15:48;17.40;99.90
20319;DHT22;10317;47.254;11.314;2023-07-20T00:18:14;17.40;99.90
20319;DHT22;10317;47.254;11.314;2023-07-20T00:20:40;17.40;99.90
20319;DHT22;10317;47.254;11.314;2023-07-20T00:23:06;17.40;99.90
20319;DHT22;10317;47.254;11.314;2023-07-20T00:25:32;17.40;99.90
20319;DHT22;10317;47.254;11.314;2023-07-20T00:27:58;17.30;99.90
20319;DHT22;10317;47.254;11.314;2023-07-20T00:30:24;17.40;99.90
20319;DHT22;10317;47.254;11.314;2023-07-20T00:32:50;17.40;99.90
20319;DHT22;10317;47.254;11.314;2023-07-20T00:35:15;17.40;99.90
20319;DHT22;10317;47.254;11.314;2023-07-20T00:37:41;17.40;99.90
20319;DHT22;10317;47.254;11.314;2023-07-20T00:40:07;17.30;99.90
20319;DHT22;10317;47.254;11.314;2023-07-20T00:42:33;17.30;99.90
20319;DHT22;10317;47.254;11.314;2023-07-20T00:44:59;17.40;99.90
20319;DHT22;10317;47.254;11.314;2023-07-20T00:47:26;17.30;99.90
20319;DHT22;10317;47.254;11.314;2023-07-20T00:49:52;17.40;99.90
20319;DHT22;10317;47.254;11.314;2023-07-20T00:52:20;17.30;99.90
20319;DHT22;10317;47.254;11.314;2023-07-20T00:54:47;17.30;99.90
20319;DHT22;10317;47.254;11.314;2023-07-20T00:57:17;17.30;99.90
20319;DHT22;10317;47.254;11.314;2023-07-20T00:59:44;17.30;99.90
20319;DHT22;10317;47.254;11.314;2023-07-20T01:02:10;17.30;99.90
20319;DHT22;10317;47.254;11.314;2023-07-20T01:04:35;17.30;99.90
20319;DHT22;10317;47.254;11.314;2023-07-20T01:09:52;17.30;99.90
20319;DHT22;10317;47.254;11.314;2023-07-20T01:12:27;17.30;99.90
20319;DHT22;10317;47.254;11.314;2023-07-20T01:14:55;17.20;99.90
20319;DHT22;10317;47.254;11.314;2023-07-20T01:17:21;17.20;99.90
20319;DHT22;10317;47.254;11.314;2023-07-20T01:19:46;17.10;99.90
20319;DHT22;10317;47.254;11.314;2023-07-20T01:30:52;17.20;99.90
20319;DHT22;10317;47.254;11.314;2023-07-20T01:33:21;17.20;99.90
20319;DHT22;10317;47.254;11.314;2023-07-20T01:35:54;17.20;99.90
20319;DHT22;10317;47.254;11.314;2023-07-20T01:38:21;17.20;99.90
20319;DHT22;10317;47.254;11.314;2023-07-20T01:40:48;17.20;99.90
20319;DHT22;10317;47.254;11.314;2023-07-20T01:43:14;17.10;99.90
20319;DHT22;10317;47.254;11.314;2023-07-20T01:45:40;17.20;99.90
20319;DHT22;10317;47.254;11.314;2023-07-20T01:48:06;17.20;99.90
20319;DHT22;10317;47.254;11.314;2023-07-20T01:50:32;17.20;99.90
20319;DHT22;10317;47.254;11.314;2023-07-20T01:53:00;17.30;99.90
20319;DHT22;10317;47.254;11.314;2023-07-20T01:55:25;17.20;99.90
20319;DHT22;10317;47.254;11.314;2023-07-20T01:57:51;17.20;99.90
20319;DHT22;10317;47.254;11.314;2023-07-20T02:00:17;17.20;99.90
20319;DHT22;10317;47.254;11.314;2023-07-20T02:02:46;17.20;99.90
20319;DHT22;10317;47.254;11.314;2023-07-20T02:05:12;17.20;99.90
20319;DHT22;10317;47.254;11.314;2023-07-20T02:07:38;17.20;99.90
20319;DHT22;10317;47.254;11.314;2023-07-20T02:10:04;17.20;99.90
20319;DHT22;10317;47.254;11.314;2023-07-20T02:12:57;17.20;99.90
20319;DHT22;10317;47.254;11.314;2023-07-20T02:15:22;17.20;99.90
20319;DHT22;10317;47.254;11.314;2023-07-20T02:17:48;17.20;99.90
20319;DHT22;10317;47.254;11.314;2023-07-20T02:20:14;17.20;99.90
20319;DHT22;10317;47.254;11.314;2023-07-20T02:22:40;17.20;99.90
20319;DHT22;10317;47.254;11.314;2023-07-20T02:25:06;17.20;99.90
20319;DHT22;10317;47.254;11.314;2023-07-20T02:27:35;17.20;99.90
20319;DHT22;10317;47.254;11.314;2023-07-20T02:30:02;17.20;99.90
20319;DHT22;10317;47.254;11.314;2023-07-20T02:32:28;17.30;99.90
20319;DHT22;10317;47.254;11.314;2023-07-20T02:34:54;17.30;99.90
20319;DHT22;10317;47.254;11.314;2023-07-20T02:37:20;17.30;99.90
20319;DHT22;10317;47.254;11.314;2023-07-20T02:39:45;17.30;99.90
20319;DHT22;10317;47.254;11.314;2023-07-20T02:42:11;17.30;99.90
20319;DHT22;10317;47.254;11.314;2023-07-20T02:44:37;17.30;99.90
20319;DHT22;10317;47.254;11.314;2023-07-20T02:47:02;17.30;99.90
20319;DHT22;10317;47.254;11.314;2023-07-20T02:49:28;17.30;99.90
20319;DHT22;10317;47.254;11.314;2023-07-20T02:51:54;17.30;99.90
20319;DHT22;10317;47.254;11.314;2023-07-20T02:54:20;17.20;99.90
20319;DHT22;10317;47.254;11.314;2023-07-20T02:56:46;17.30;99.90
20319;DHT22;10317;47.254;11.314;2023-07-20T02:59:12;17.30;99.90
20319;DHT22;10317;47.254;11.314;2023-07-20T03:01:37;17.30;99.90
20319;DHT22;10317;47.254;11.314;2023-07-20T03:04:03;17.30;99.90
20319;DHT22;10317;47.254;11.314;2023-07-20T03:06:29;17.30;99.90
20319;DHT22;10317;47.254;11.314;2023-07-20T03:08:56;17.30;99.90
20319;DHT22;10317;47.254;11.314;2023-07-20T03:11:22;17.20;99.90
20319;DHT22;10317;47.254;11.314;2023-07-20T03:13:48;17.20;99.90
20319;DHT22;10317;47.254;11.314;2023-07-20T03:16:15;17.30;99.90
20319;DHT22;10317;47.254;11.314;2023-07-20T03:18:43;17.30;99.90
20319;DHT22;10317;47.254;11.314;2023-07-20T03:21:10;17.20;99.90
20319;DHT22;10317;47.254;11.314;2023-07-20T03:23:40;17.30;99.90
20319;DHT22;10317;47.254;11.314;2023-07-20T03:26:06;17.20;99.90
20319;DHT22;10317;47.254;11.314;2023-07-20T03:28:36;17.30;99.90
20319;DHT22;10317;47.254;11.314;2023-07-20T03:31:03;17.30;99.90
20319;DHT22;10317;47.254;11.314;2023-07-20T03:33:29;17.30;99.90
20319;DHT22;10317;47.254;11.314;2023-07-20T03:35:56;17.20;99.90
20319;DHT22;10317;47.254;11.314;2023-07-20T03:38:23;17.30;99.90
20319;DHT22;10317;47.254;11.314;2023-07-20T03:40:53;17.30;99.90
20319;DHT22;10317;47.254;11.314;2023-07-20T03:43:20;17.30;99.90
20319;DHT22;10317;47.254;11.314;2023-07-20T03:45:46;17.30;99.90
20319;DHT22;10317;47.254;11.314;2023-07-20T03:48:15;17.20;99.90
20319;DHT22;10317;47.254;11.314;2023-07-20T03:50:41;17.30;99.90
20319;DHT22;10317;47.254;11.314;2023-07-20T03:53:06;17.30;99.90
20319;DHT22;10317;47.254;11.314;2023-07-20T03:55:32;17.30;99.90
20319;DHT22;10317;47.254;11.314;2023-07-20T03:57:58;17.20;99.90
20319;DHT22;10317;47.254;11.314;2023-07-20T04:00:24;17.30;99.90
20319;DHT22;10317;47.254;11.314;2023-07-20T04:02:50;17.30;99.90
20319;DHT22;10317;47.254;11.314;2023-07-20T04:05:15;17.20;99.90
20319;DHT22;10317;47.254;11.314;2023-07-20T04:07:41;17.30;99.90
20319;DHT22;10317;47.254;11.314;2023-07-20T04:10:07;17.20;99.90
20319;DHT22;10317;47.254;11.314;2023-07-20T04:12:34;17.20;99.90
20319;DHT22;10317;47.254;11.314;2023-07-20T04:15:00;17.20;99.90
20319;DHT22;10317;47.254;11.314;2023-07-20T04:17:26;17.20;99.90
20319;DHT22;10317;47.254;11.314;2023-07-20T04:19:51;17.20;99.90
20319;DHT22;10317;47.254;11.314;2023-07-20T04:22:17;17.20;99.90
20319;DHT22;10317;47.254;11.314;2023-07-20T04:24:43;17.20;99.90
20319;DHT22;10317;47.254;11.314;2023-07-20T04:27:08;17.20;99.90
20319;DHT22;10317;47.254;11.314;2023-07-20T04:29:34;17.20;99.90
20319;DHT22;10317;47.254;11.314;2023-07-20T04:32:00;17.20;99.90
20319;DHT22;10317;47.254;11.314;2023-07-20T04:34:26;17.20;99.90
20319;DHT22;10317;47.254;11.314;2023-07-20T04:36:51;17.20;99.90
20319;DHT22;10317;47.254;11.314;2023-07-20T04:39:17;17.20;99.90
20319;DHT22;10317;47.254;11.314;2023-07-20T04:41:42;17.30;99.90
20319;DHT22;10317;47.254;11.314;2023-07-20T04:44:08;17.20;99.90
20319;DHT22;10317;47.254;11.314;2023-07-20T04:46:34;17.30;99.90
20319;DHT22;10317;47.254;11.314;2023-07-20T04:49:00;17.30;99.90
20319;DHT22;10317;47.254;11.314;2023-07-20T04:51:27;17.30;99.90
20319;DHT22;10317;47.254;11.314;2023-07-20T04:53:52;17.30;99.90
20319;DHT22;10317;47.254;11.314;2023-07-20T04:56:18;17.40;99.90
20319;DHT22;10317;47.254;11.314;2023-07-20T04:58:44;17.40;99.90
20319;DHT22;10317;47.254;11.314;2023-07-20T05:01:10;17.30;99.90
20319;DHT22;10317;47.254;11.314;2023-07-20T05:03:36;17.40;99.90
20319;DHT22;10317;47.254;11.314;2023-07-20T05:06:02;17.40;99.90
20319;DHT22;10317;47.254;11.314;2023-07-20T05:08:27;17.50;99.90
20319;DHT22;10317;47.254;11.314;2023-07-20T05:10:53;17.50;99.90
20319;DHT22;10317;47.254;11.314;2023-07-20T05:13:19;17.50;99.90
20319;DHT22;10317;47.254;11.314;2023-07-20T05:15:44;17.60;99.90
20319;DHT22;10317;47.254;11.314;2023-07-20T05:18:10;17.70;99.90
20319;DHT22;10317;47.254;11.314;2023-07-20T05:20:36;17.80;99.90
20319;DHT22;10317;47.254;11.314;2023-07-20T05:23:02;18.00;99.90
20319;DHT22;10317;47.254;11.314;2023-07-20T05:25:28;18.10;99.90
20319;DHT22;10317;47.254;11.314;2023-07-20T05:27:54;18.10;99.90
20319;DHT22;10317;47.254;11.314;2023-07-20T05:30:20;18.20;99.90
20319;DHT22;10317;47.254;11.314;2023-07-20T05:32:46;18.20;99.90
20319;DHT22;10317;47.254;11.314;2023-07-20T05:35:17;18.20;99.90
20319;DHT22;10317;47.254;11.314;2023-07-20T05:37:43;18.20;99.90
20319;DHT22;10317;47.254;11.314;2023-07-20T05:40:09;18.10;99.90
20319;DHT22;10317;47.254;11.314;2023-07-20T05:42:40;18.10;99.90
20319;DHT22;10317;47.254;11.314;2023-07-20T05:45:06;18.10;99.90
20319;DHT22;10317;47.254;11.314;2023-07-20T05:47:32;18.10;99.90
20319;DHT22;10317;47.254;11.314;2023-07-20T05:49:58;18.00;99.90
20319;DHT22;10317;47.254;11.314;2023-07-20T05:52:24;18.00;99.90
20319;DHT22;10317;47.254;11.314;2023-07-20T05:54:50;18.00;99.90
20319;DHT22;10317;47.254;11.314;2023-07-20T05:57:15;18.00;99.90
20319;DHT22;10317;47.254;11.314;2023-07-20T05:59:41;18.00;99.90
20319;DHT22;10317;47.254;11.314;2023-07-20T06:02:10;18.10;99.90
20319;DHT22;10317;47.254;11.314;2023-07-20T06:04:35;18.10;99.90
20319;DHT22;10317;47.254;11.314;2023-07-20T06:07:01;18.10;99.90
20319;DHT22;10317;47.254;11.314;2023-07-20T06:09:27;18.10;99.90
20319;DHT22;10317;47.254;11.314;2023-07-20T06:11:53;18.20;99.90
20319;DHT22;10317;47.254;11.314;2023-07-20T06:14:19;18.20;99.90
20319;DHT22;10317;47.254;11.314;2023-07-20T06:16:45;18.20;99.90
20319;DHT22;10317;47.254;11.314;2023-07-20T06:19:11;18.30;99.90
20319;DHT22;10317;47.254;11.314;2023-07-20T06:21:37;18.30;99.90
20319;DHT22;10317;47.254;11.314;2023-07-20T06:24:03;18.40;99.90
20319;DHT22;10317;47.254;11.314;2023-07-20T06:26:29;18.50;99.90
20319;DHT22;10317;47.254;11.314;2023-07-20T06:28:56;18.50;99.90
20319;DHT22;10317;47.254;11.314;2023-07-20T06:31:21;18.70;99.90
20319;DHT22;10317;47.254;11.314;2023-07-20T06:33:47;19.10;99.90
20319;DHT22;10317;47.254;11.314;2023-07-20T06:36:13;19.60;99.90
20319;DHT22;10317;47.254;11.314;2023-07-20T06:38:39;20.10;99.90
20319;DHT22;10317;47.254;11.314;2023-07-20T06:41:05;20.40;99.90
20319;DHT22;10317;47.254;11.314;2023-07-20T06:43:31;20.30;99.90
20319;DHT22;10317;47.254;11.314;2023-07-20T06:45:56;20.30;99.90
20319;DHT22;10317;47.254;11.314;2023-07-20T06:48:22;20.10;99.90
20319;DHT22;10317;47.254;11.314;2023-07-20T06:50:48;20.10;99.90
20319;DHT22;10317;47.254;11.314;2023-07-20T06:53:13;19.90;99.90
20319;DHT22;10317;47.254;11.314;2023-07-20T06:55:39;19.90;99.90
20319;DHT22;10317;47.254;11.314;2023-07-20T06:58:07;19.80;99.90
20319;DHT22;10317;47.254;11.314;2023-07-20T07:00:32;19.80;99.90
20319;DHT22;10317;47.254;11.314;2023-07-20T07:02:58;19.70;99.90
20319;DHT22;10317;47.254;11.314;2023-07-20T07:05:24;19.80;99.90
20319;DHT22;10317;47.254;11.314;2023-07-20T07:07:50;19.70;99.90
20319;DHT22;10317;47.254;11.314;2023-07-20T07:10:15;19.70;99.90
20319;DHT22;10317;47.254;11.314;2023-07-20T07:12:41;19.70;99.90
20319;DHT22;10317;47.254;11.314;2023-07-20T07:15:07;19.70;99.90
20319;DHT22;10317;47.254;11.314;2023-07-20T07:17:33;20.00;99.90
20319;DHT22;10317;47.254;11.314;2023-07-20T07:19:59;20.50;99.90
20319;DHT22;10317;47.254;11.314;2023-07-20T07:22:25;21.20;99.90
20319;DHT22;10317;47.254;11.314;2023-07-20T07:24:51;21.40;99.90
20319;DHT22;10317;47.254;11.314;2023-07-20T07:27:16;21.30;99.90
20319;DHT22;10317;47.254;11.314;2023-07-20T07:29:43;21.00;99.90
20319;DHT22;10317;47.254;11.314;2023-07-20T07:32:12;20.70;99.90
20319;DHT22;10317;47.254;11.314;2023-07-20T07:34:38;20.60;99.90
20319;DHT22;10317;47.254;11.314;2023-07-20T07:37:04;20.60;99.90
20319;DHT22;10317;47.254;11.314;2023-07-20T07:39:30;20.70;99.90
20319;DHT22;10317;47.254;11.314;2023-07-20T07:41:56;20.80;99.90
20319;DHT22;10317;47.254;11.314;2023-07-20T07:44:23;20.90;99.90
20319;DHT22;10317;47.254;11.314;2023-07-20T07:46:49;21.30;99.90
20319;DHT22;10317;47.254;11.314;2023-07-20T07:49:15;22.30;99.90
20319;DHT22;10317;47.254;11.314;2023-07-20T07:51:41;23.50;99.90
20319;DHT22;10317;47.254;11.314;2023-07-20T07:54:07;24.40;99.90
20319;DHT22;10317;47.254;11.314;2023-07-20T07:56:32;24.60;99.90
20319;DHT22;10317;47.254;11.314;2023-07-20T07:58:58;25.00;99.90
20319;DHT22;10317;47.254;11.314;2023-07-20T08:01:24;24.70;99.90
20319;DHT22;10317;47.254;11.314;2023-07-20T08:03:50;24.50;99.90
20319;DHT22;10317;47.254;11.314;2023-07-20T08:06:16;24.80;99.90
20319;DHT22;10317;47.254;11.314;2023-07-20T08:08:42;24.50;99.90
20319;DHT22;10317;47.254;11.314;2023-07-20T08:11:08;24.30;99.90
20319;DHT22;10317;47.254;11.314;2023-07-20T08:13:34;23.80;99.90
20319;DHT22;10317;47.254;11.314;2023-07-20T08:16:01;24.20;99.90
20319;DHT22;10317;47.254;11.314;2023-07-20T08:18:28;24.00;99.90
20319;DHT22;10317;47.254;11.314;2023-07-20T08:20:54;24.00;99.90
20319;DHT22;10317;47.254;11.314;2023-07-20T08:23:19;24.70;99.90
20319;DHT22;10317;47.254;11.314;2023-07-20T08:25:45;25.60;99.50
20319;DHT22;10317;47.254;11.314;2023-07-20T08:28:16;25.70;98.10
20319;DHT22;10317;47.254;11.314;2023-07-20T08:30:43;25.90;98.20
20319;DHT22;10317;47.254;11.314;2023-07-20T08:33:13;25.70;98.30
20319;DHT22;10317;47.254;11.314;2023-07-20T08:35:40;25.20;98.00
20319;DHT22;10317;47.254;11.314;2023-07-20T08:38:06;25.10;98.00
20319;DHT22;10317;47.254;11.314;2023-07-20T08:40:33;25.70;97.20
20319;DHT22;10317;47.254;11.314;2023-07-20T08:43:00;25.70;96.80
20319;DHT22;10317;47.254;11.314;2023-07-20T08:45:28;25.90;96.20
20319;DHT22;10317;47.254;11.314;2023-07-20T08:47:56;26.10;96.50
20319;DHT22;10317;47.254;11.314;2023-07-20T08:50:28;26.80;97.10
20319;DHT22;10317;47.254;11.314;2023-07-20T08:52:57;27.40;93.50
20319;DHT22;10317;47.254;11.314;2023-07-20T08:55:27;27.70;92.30
20319;DHT22;10317;47.254;11.314;2023-07-20T08:57:54;27.90;91.90
20319;DHT22;10317;47.254;11.314;2023-07-20T09:00:21;27.90;91.20
20319;DHT22;10317;47.254;11.314;2023-07-20T09:02:50;28.00;87.40
20319;DHT22;10317;47.254;11.314;2023-07-20T09:05:20;27.90;89.10
20319;DHT22;10317;47.254;11.314;2023-07-20T09:07:46;28.00;89.20
20319;DHT22;10317;47.254;11.314;2023-07-20T09:10:12;28.00;86.20
20319;DHT22;10317;47.254;11.314;2023-07-20T09:12:42;27.90;87.00
20319;DHT22;10317;47.254;11.314;2023-07-20T09:15:10;27.60;89.90
20319;DHT22;10317;47.254;11.314;2023-07-20T09:17:36;27.80;88.00
20319;DHT22;10317;47.254;11.314;2023-07-20T09:20:08;27.80;86.10
20319;DHT22;10317;47.254;11.314;2023-07-20T09:22:38;27.60;84.50
20319;DHT22;10317;47.254;11.314;2023-07-20T09:25:15;27.30;87.10
20319;DHT22;10317;47.254;11.314;2023-07-20T09:27:43;27.20;89.70
20319;DHT22;10317;47.254;11.314;2023-07-20T09:30:10;27.30;85.80
20319;DHT22;10317;47.254;11.314;2023-07-20T09:32:46;27.20;85.70
20319;DHT22;10317;47.254;11.314;2023-07-20T09:35:20;27.10;88.00
20319;DHT22;10317;47.254;11.314;2023-07-20T09:37:49;26.90;87.70
20319;DHT22;10317;47.254;11.314;2023-07-20T09:40:18;26.70;87.60
20319;DHT22;10317;47.254;11.314;2023-07-20T09:42:44;26.90;85.20
20319;DHT22;10317;47.254;11.314;2023-07-20T09:45:10;27.00;87.50
20319;DHT22;10317;47.254;11.314;2023-07-20T09:47:37;27.00;90.10
20319;DHT22;10317;47.254;11.314;2023-07-20T09:50:07;27.00;87.40
20319;DHT22;10317;47.254;11.314;2023-07-20T09:52:42;26.80;88.20
20319;DHT22;10317;47.254;11.314;2023-07-20T09:55:10;26.90;86.40
20319;DHT22;10317;47.254;11.314;2023-07-20T09:57:39;26.80;82.70
20319;DHT22;10317;47.254;11.314;2023-07-20T10:00:06;26.80;84.00
20319;DHT22;10317;47.254;11.314;2023-07-20T10:02:43;26.60;84.00
20319;DHT22;10317;47.254;11.314;2023-07-20T10:05:12;26.50;85.30
20319;DHT22;10317;47.254;11.314;2023-07-20T10:07:45;26.60;85.80
20319;DHT22;10317;47.254;11.314;2023-07-20T10:10:16;26.50;82.60
20319;DHT22;10317;47.254;11.314;2023-07-20T10:12:47;26.40;84.20
20319;DHT22;10317;47.254;11.314;2023-07-20T10:15:23;26.50;84.00
20319;DHT22;10317;47.254;11.314;2023-07-20T10:17:59;26.50;87.30
20319;DHT22;10317;47.254;11.314;2023-07-20T10:20:28;26.50;87.70
20319;DHT22;10317;47.254;11.314;2023-07-20T10:22:55;26.40;86.70
20319;DHT22;10317;47.254;11.314;2023-07-20T10:25:22;26.60;86.90
20319;DHT22;10317;47.254;11.314;2023-07-20T10:27:49;26.80;84.00
20319;DHT22;10317;47.254;11.314;2023-07-20T10:30:15;26.80;82.40
20319;DHT22;10317;47.254;11.314;2023-07-20T10:32:42;26.80;82.80
20319;DHT22;10317;47.254;11.314;2023-07-20T10:35:13;26.70;83.40
20319;DHT22;10317;47.254;11.314;2023-07-20T10:40:32;26.90;84.50
20319;DHT22;10317;47.254;11.314;2023-07-20T10:43:19;26.80;84.10
20319;DHT22;10317;47.254;11.314;2023-07-20T10:45:52;26.50;86.70
20319;DHT22;10317;47.254;11.314;2023-07-20T10:48:22;26.80;83.90
20319;DHT22;10317;47.254;11.314;2023-07-20T10:51:14;26.80;82.50
20319;DHT22;10317;47.254;11.314;2023-07-20T10:53:45;26.90;83.10
20319;DHT22;10317;47.254;11.314;2023-07-20T10:56:15;27.10;80.60
20319;DHT22;10317;47.254;11.314;2023-07-20T10:58:44;27.30;84.20
20319;DHT22;10317;47.254;11.314;2023-07-20T11:01:15;27.50;82.00
20319;DHT22;10317;47.254;11.314;2023-07-20T11:03:41;27.40;79.90
20319;DHT22;10317;47.254;11.314;2023-07-20T11:09:13;27.30;83.60
20319;DHT22;10317;47.254;11.314;2023-07-20T11:11:46;27.40;83.00
20319;DHT22;10317;47.254;11.314;2023-07-20T11:14:22;27.20;83.80
20319;DHT22;10317;47.254;11.314;2023-07-20T11:16:49;27.30;84.50
20319;DHT22;10317;47.254;11.314;2023-07-20T11:19:28;27.40;82.00
20319;DHT22;10317;47.254;11.314;2023-07-20T11:21:56;27.20;80.80
20319;DHT22;10317;47.254;11.314;2023-07-20T11:24:22;27.30;81.20
20319;DHT22;10317;47.254;11.314;2023-07-20T11:26:50;27.40;82.00
20319;DHT22;10317;47.254;11.314;2023-07-20T11:29:17;27.50;83.20
20319;DHT22;10317;47.254;11.314;2023-07-20T11:31:45;27.40;79.90
20319;DHT22;10317;47.254;11.314;2023-07-20T11:34:20;27.50;79.80
20319;DHT22;10317;47.254;11.314;2023-07-20T11:36:47;27.50;79.40
20319;DHT22;10317;47.254;11.314;2023-07-20T11:39:14;27.40;80.30
20319;DHT22;10317;47.254;11.314;2023-07-20T11:41:57;27.30;80.80
20319;DHT22;10317;47.254;11.314;2023-07-20T11:44:26;27.40;82.10
20319;DHT22;10317;47.254;11.314;2023-07-20T11:47:11;27.60;80.80
20319;DHT22;10317;47.254;11.314;2023-07-20T11:49:41;27.60;78.70
20319;DHT22;10317;47.254;11.314;2023-07-20T11:52:13;27.70;78.80
20319;DHT22;10317;47.254;11.314;2023-07-20T11:54:41;27.80;81.70
20319;DHT22;10317;47.254;11.314;2023-07-20T11:57:07;27.80;79.60
20319;DHT22;10317;47.254;11.314;2023-07-20T11:59:33;27.80;77.70
20319;DHT22;10317;47.254;11.314;2023-07-20T12:02:02;27.90;76.40
20319;DHT22;10317;47.254;11.314;2023-07-20T12:04:29;28.00;77.70
20319;DHT22;10317;47.254;11.314;2023-07-20T12:06:55;28.10;76.80
20319;DHT22;10317;47.254;11.314;2023-07-20T12:09:21;27.90;76.60
20319;DHT22;10317;47.254;11.314;2023-07-20T12:11:49;27.50;77.10
20319;DHT22;10317;47.254;11.314;2023-07-20T12:14:15;27.60;79.30
20319;DHT22;10317;47.254;11.314;2023-07-20T12:16:42;27.70;76.90
20319;DHT22;10317;47.254;11.314;2023-07-20T12:19:10;27.80;76.70
20319;DHT22;10317;47.254;11.314;2023-07-20T12:21:37;27.90;75.40
20319;DHT22;10317;47.254;11.314;2023-07-20T12:24:04;27.80;74.90
20319;DHT22;10317;47.254;11.314;2023-07-20T12:26:31;27.80;75.00
20319;DHT22;10317;47.254;11.314;2023-07-20T12:28:57;27.80;74.40
20319;DHT22;10317;47.254;11.314;2023-07-20T12:31:23;27.70;74.50
20319;DHT22;10317;47.254;11.314;2023-07-20T12:33:53;27.80;75.90
20319;DHT22;10317;47.254;11.314;2023-07-20T12:36:23;28.00;74.60
20319;DHT22;10317;47.254;11.314;2023-07-20T12:38:49;28.00;74.50
20319;DHT22;10317;47.254;11.314;2023-07-20T12:41:15;28.00;73.00
20319;DHT22;10317;47.254;11.314;2023-07-20T12:43:49;28.10;73.30
20319;DHT22;10317;47.254;11.314;2023-07-20T12:46:15;28.10;72.40
20319;DHT22;10317;47.254;11.314;2023-07-20T12:48:41;28.00;72.20
20319;DHT22;10317;47.254;11.314;2023-07-20T12:51:11;28.00;72.40
20319;DHT22;10317;47.254;11.314;2023-07-20T12:53:37;27.90;73.30
20319;DHT22;10317;47.254;11.314;2023-07-20T12:56:03;27.70;74.00
20319;DHT22;10317;47.254;11.314;2023-07-20T12:58:29;27.70;72.40
20319;DHT22;10317;47.254;11.314;2023-07-20T13:00:54;27.60;74.20
20319;DHT22;10317;47.254;11.314;2023-07-20T13:03:20;27.80;75.70
20319;DHT22;10317;47.254;11.314;2023-07-20T13:05:47;27.90;70.10
20319;DHT22;10317;47.254;11.314;2023-07-20T13:08:13;28.00;74.60
20319;DHT22;10317;47.254;11.314;2023-07-20T13:10:39;28.00;71.70
20319;DHT22;10317;47.254;11.314;2023-07-20T13:13:05;28.10;71.10
20319;DHT22;10317;47.254;11.314;2023-07-20T13:15:32;28.10;72.60
20319;DHT22;10317;47.254;11.314;2023-07-20T13:17:58;28.20;71.80
20319;DHT22;10317;47.254;11.314;2023-07-20T13:20:25;28.20;71.50
20319;DHT22;10317;47.254;11.314;2023-07-20T13:22:51;28.30;71.50
20319;DHT22;10317;47.254;11.314;2023-07-20T13:25:17;28.40;72.70
20319;DHT22;10317;47.254;11.314;2023-07-20T13:27:44;28.40;72.30
20319;DHT22;10317;47.254;11.314;2023-07-20T13:30:10;27.80;72.00
20319;DHT22;10317;47.254;11.314;2023-07-20T13:32:44;27.80;72.70
20319;DHT22;10317;47.254;11.314;2023-07-20T13:35:11;28.00;70.50
20319;DHT22;10317;47.254;11.314;2023-07-20T13:37:37;27.90;75.00
20319;DHT22;10317;47.254;11.314;2023-07-20T13:40:03;27.90;76.20
20319;DHT22;10317;47.254;11.314;2023-07-20T13:42:32;28.00;76.40
20319;DHT22;10317;47.254;11.314;2023-07-20T13:44:58;28.30;72.90
20319;DHT22;10317;47.254;11.314;2023-07-20T13:47:24;28.20;73.20
20319;DHT22;10317;47.254;11.314;2023-07-20T13:49:49;28.20;73.20
20319;DHT22;10317;47.254;11.314;2023-07-20T13:52:15;28.30;73.30
20319;DHT22;10317;47.254;11.314;2023-07-20T13:54:41;28.30;71.40
20319;DHT22;10317;47.254;11.314;2023-07-20T13:57:06;28.30;71.10
20319;DHT22;10317;47.254;11.314;2023-07-20T13:59:32;28.40;70.10
20319;DHT22;10317;47.254;11.314;2023-07-20T14:01:58;28.30;69.20
20319;DHT22;10317;47.254;11.314;2023-07-20T14:04:24;28.50;71.10
20319;DHT22;10317;47.254;11.314;2023-07-20T14:06:50;28.20;69.90
20319;DHT22;10317;47.254;11.314;2023-07-20T14:09:15;28.00;69.60
20319;DHT22;10317;47.254;11.314;2023-07-20T14:11:41;28.10;72.20
20319;DHT22;10317;47.254;11.314;2023-07-20T14:14:07;28.20;70.20
20319;DHT22;10317;47.254;11.314;2023-07-20T14:16:33;28.30;71.50
20319;DHT22;10317;47.254;11.314;2023-07-20T14:18:59;28.40;68.10
20319;DHT22;10317;47.254;11.314;2023-07-20T14:21:25;28.50;69.20
20319;DHT22;10317;47.254;11.314;2023-07-20T14:23:52;28.70;68.80
20319;DHT22;10317;47.254;11.314;2023-07-20T14:26:21;28.50;67.90
20319;DHT22;10317;47.254;11.314;2023-07-20T14:28:46;28.40;69.10
20319;DHT22;10317;47.254;11.314;2023-07-20T14:31:12;28.20;66.60
20319;DHT22;10317;47.254;11.314;2023-07-20T14:33:38;28.20;66.90
20319;DHT22;10317;47.254;11.314;2023-07-20T14:36:04;28.20;67.90
20319;DHT22;10317;47.254;11.314;2023-07-20T14:38:34;28.10;69.80
20319;DHT22;10317;47.254;11.314;2023-07-20T14:41:00;28.00;68.40
20319;DHT22;10317;47.254;11.314;2023-07-20T14:43:26;28.00;68.80
20319;DHT22;10317;47.254;11.314;2023-07-20T14:45:52;28.00;69.40
20319;DHT22;10317;47.254;11.314;2023-07-20T14:48:17;27.90;68.90
20319;DHT22;10317;47.254;11.314;2023-07-20T14:50:43;28.00;67.90
20319;DHT22;10317;47.254;11.314;2023-07-20T14:53:13;28.00;70.30
20319;DHT22;10317;47.254;11.314;2023-07-20T14:55:39;27.80;70.20
20319;DHT22;10317;47.254;11.314;2023-07-20T14:58:05;27.70;70.40
20319;DHT22;10317;47.254;11.314;2023-07-20T15:00:31;27.80;68.40
20319;DHT22;10317;47.254;11.314;2023-07-20T15:02:56;27.60;69.30
20319;DHT22;10317;47.254;11.314;2023-07-20T15:05:23;27.30;69.50
20319;DHT22;10317;47.254;11.314;2023-07-20T15:07:49;26.90;70.80
20319;DHT22;10317;47.254;11.314;2023-07-20T15:10:15;26.90;72.60
20319;DHT22;10317;47.254;11.314;2023-07-20T15:12:41;26.90;71.70
20319;DHT22;10317;47.254;11.314;2023-07-20T15:15:14;27.00;71.10
20319;DHT22;10317;47.254;11.314;2023-07-20T15:17:42;27.00;70.80
20319;DHT22;10317;47.254;11.314;2023-07-20T15:20:10;27.20;70.00
20319;DHT22;10317;47.254;11.314;2023-07-20T15:22:36;27.20;70.60
20319;DHT22;10317;47.254;11.314;2023-07-20T15:25:03;27.30;71.30
20319;DHT22;10317;47.254;11.314;2023-07-20T15:27:29;27.20;71.30
20319;DHT22;10317;47.254;11.314;2023-07-20T15:29:55;27.20;70.40
20319;DHT22;10317;47.254;11.314;2023-07-20T15:32:21;27.10;69.90